Time,TemperatureF,DewpointF,PressureIn,WindDirection,WindDirectionDegrees,WindSpeedMPH,WindSpeedGustMPH,Humidity,HourlyPrecipIn,Conditions,Clouds,dailyrainin,SoftwareType,DateUTC
2013-08-27 00:00:00,66.4,59.7,29.95,WSW,248,1.0,11.0,79,0.00,,,0.00,VWS V14.01,2013-08-27 04:00:00,
2013-08-27 00:15:00,66.4,59.7,29.95,WSW,248,1.0,12.0,79,0.00,,,0.00,VWS V14.01,2013-08-27 04:15:00,
2013-08-27 00:30:00,66.1,60.5,29.93,WSW,248,1.0,10.0,82,0.00,,,0.00,VWS V14.01,2013-08-27 04:30:00,
2013-08-27 00:45:00,66.1,60.8,29.93,SW,225,1.0,9.0,83,0.00,,,0.00,VWS V14.01,2013-08-27 04:45:00,
2013-08-27 01:00:00,66.1,60.8,29.92,SW,225,4.0,15.0,83,0.00,,,0.00,VWS V14.01,2013-08-27 05:00:00,
2013-08-27 01:15:00,66.3,60.7,29.92,WSW,248,4.0,22.0,82,0.00,,,0.00,VWS V14.01,2013-08-27 05:15:00,
2013-08-27 01:30:00,66.6,60.6,29.92,SW,225,4.0,17.0,81,0.00,,,0.00,VWS V14.01,2013-08-27 05:30:00,
2013-08-27 01:45:00,66.3,60.7,29.92,SW,225,2.0,17.0,82,0.00,,,0.00,VWS V14.01,2013-08-27 05:45:00,
2013-08-27 02:00:00,66.3,60.7,29.91,SSW,202,3.0,20.0,82,0.00,,,0.00,VWS V14.01,2013-08-27 06:00:00,
2013-08-27 02:15:00,66.3,60.7,29.90,SSW,202,3.0,15.0,82,0.00,,,0.00,VWS V14.01,2013-08-27 06:15:00,
2013-08-27 02:30:00,66.0,60.7,29.90,SSW,202,2.0,16.0,83,0.00,,,0.00,VWS V14.01,2013-08-27 06:30:00,
2013-08-27 02:45:00,66.1,60.5,29.89,WSW,248,4.0,18.0,82,0.00,,,0.00,VWS V14.01,2013-08-27 06:45:00,
2013-08-27 03:00:00,66.0,60.7,29.89,SW,225,3.0,15.0,83,0.00,,,0.00,VWS V14.01,2013-08-27 07:00:00,
2013-08-27 03:15:00,66.0,60.7,29.90,SSW,202,2.0,15.0,83,0.00,,,0.00,VWS V14.01,2013-08-27 07:15:00,
2013-08-27 03:30:00,66.1,60.5,29.89,SSW,202,3.0,13.0,82,0.00,,,0.00,VWS V14.01,2013-08-27 07:30:00,
2013-08-27 03:45:00,66.1,60.5,29.89,West,270,2.0,13.0,82,0.00,,,0.00,VWS V14.01,2013-08-27 07:45:00,
2013-08-27 04:00:00,66.1,60.8,29.89,SSW,202,2.0,13.0,83,0.00,,,0.00,VWS V14.01,2013-08-27 08:00:00,
2013-08-27 04:15:00,66.0,61.4,29.89,WNW,292,1.0,12.0,85,0.00,,,0.00,VWS V14.01,2013-08-27 08:15:00,
2013-08-27 04:30:00,66.0,61.4,29.89,SW,225,3.0,16.0,85,0.00,,,0.00,VWS V14.01,2013-08-27 08:30:00,
2013-08-27 04:45:00,66.0,61.7,29.88,SW,225,2.0,14.0,86,0.00,,,0.00,VWS V14.01,2013-08-27 08:45:00,
2013-08-27 05:00:00,66.0,62.0,29.88,West,270,2.0,12.0,87,0.00,,,0.00,VWS V14.01,2013-08-27 09:00:00,
2013-08-27 05:15:00,65.8,61.8,29.89,SW,225,3.0,16.0,87,0.00,,,0.00,VWS V14.01,2013-08-27 09:15:00,
2013-08-27 05:30:00,66.1,61.8,29.89,SW,225,2.0,13.0,86,0.00,,,0.00,VWS V14.01,2013-08-27 09:30:00,
2013-08-27 05:45:00,66.4,61.8,29.89,SW,225,2.0,21.0,85,0.00,,,0.00,VWS V14.01,2013-08-27 09:45:00,
2013-08-27 06:00:00,66.3,62.0,29.89,SW,225,3.0,16.0,86,0.00,,,0.00,VWS V14.01,2013-08-27 10:00:00,
2013-08-27 06:15:00,66.1,62.1,29.89,SW,225,3.0,19.0,87,0.00,,,0.00,VWS V14.01,2013-08-27 10:15:00,
2013-08-27 06:30:00,66.0,62.0,29.90,WSW,248,2.0,9.0,87,0.00,,,0.00,VWS V14.01,2013-08-27 10:30:00,
2013-08-27 06:45:00,66.0,62.0,29.91,SW,225,3.0,19.0,87,0.00,,,0.00,VWS V14.01,2013-08-27 10:45:00,
2013-08-27 07:00:00,65.8,62.2,29.91,SW,225,1.0,6.0,88,0.00,,,0.00,VWS V14.01,2013-08-27 11:00:00,
2013-08-27 07:15:00,65.6,62.0,29.93,WSW,248,1.0,11.0,88,0.00,,,0.00,VWS V14.01,2013-08-27 11:15:00,
2013-08-27 07:30:00,65.8,62.2,29.93,SW,225,1.0,10.0,88,0.00,,,0.00,VWS V14.01,2013-08-27 11:30:00,
2013-08-27 07:45:00,66.4,62.1,29.93,WNW,292,1.0,14.0,86,0.00,,,0.00,VWS V14.01,2013-08-27 11:45:00,
2013-08-27 08:00:00,67.1,62.5,29.92,WSW,248,4.0,17.0,85,0.00,,,0.00,VWS V14.01,2013-08-27 12:00:00,
2013-08-27 08:15:00,67.4,62.7,29.92,WSW,248,0.0,7.0,85,0.00,,,0.00,VWS V14.01,2013-08-27 12:15:00,
2013-08-27 08:30:00,67.4,62.7,29.92,SSW,202,1.0,10.0,85,0.00,,,0.00,VWS V14.01,2013-08-27 12:30:00,
2013-08-27 08:45:00,68.3,63.3,29.92,West,270,0.0,9.0,84,0.00,,,0.00,VWS V14.01,2013-08-27 12:45:00,
2013-08-27 09:00:00,68.3,62.9,29.93,SW,225,2.0,14.0,83,0.00,,,0.00,VWS V14.01,2013-08-27 13:00:00,
2013-08-27 09:15:00,68.6,63.2,29.92,SW,225,2.0,27.0,83,0.00,,,0.00,VWS V14.01,2013-08-27 13:15:00,
2013-08-27 09:30:00,69.1,63.0,29.92,WSW,248,2.0,12.0,81,0.00,,,0.00,VWS V14.01,2013-08-27 13:30:00,
2013-08-27 09:45:00,69.3,63.2,29.92,SW,225,2.0,14.0,81,0.00,,,0.00,VWS V14.01,2013-08-27 13:45:00,
2013-08-27 10:00:00,69.9,63.8,29.92,SW,225,2.0,14.0,81,0.00,,,0.00,VWS V14.01,2013-08-27 14:00:00,
2013-08-27 10:15:00,70.4,64.3,29.92,SSW,202,2.0,14.0,81,0.00,,,0.00,VWS V14.01,2013-08-27 14:15:00,
2013-08-27 10:30:00,70.4,64.3,29.91,SW,225,3.0,17.0,81,0.00,,,0.00,VWS V14.01,2013-08-27 14:30:00,
2013-08-27 10:45:00,70.4,63.9,29.92,SSW,202,2.0,12.0,80,0.00,,,0.00,VWS V14.01,2013-08-27 14:45:00,
2013-08-27 11:00:00,70.8,64.3,29.91,SSW,202,4.0,20.0,80,0.00,,,0.00,VWS V14.01,2013-08-27 15:00:00,
2013-08-27 11:15:00,70.8,64.3,29.92,SSW,202,4.0,17.0,80,0.00,,,0.00,VWS V14.01,2013-08-27 15:15:00,
2013-08-27 11:30:00,71.3,64.5,29.92,WSW,248,3.0,18.0,79,0.00,,,0.00,VWS V14.01,2013-08-27 15:30:00,
2013-08-27 11:45:00,72.8,65.6,29.91,SSW,202,1.0,10.0,78,0.00,,,0.00,VWS V14.01,2013-08-27 15:45:00,
2013-08-27 12:00:00,73.5,64.7,29.91,SW,225,1.0,21.0,74,0.00,,,0.00,VWS V14.01,2013-08-27 16:00:00,
2013-08-27 12:15:00,73.5,64.7,29.90,SW,225,1.0,12.0,74,0.00,,,0.00,VWS V14.01,2013-08-27 16:15:00,
2013-08-27 12:30:00,72.5,64.9,29.90,SW,225,1.0,14.0,77,0.00,,,0.00,VWS V14.01,2013-08-27 16:30:00,
2013-08-27 12:45:00,72.3,64.7,29.90,WNW,292,0.0,4.0,77,0.00,,,0.00,VWS V14.01,2013-08-27 16:45:00,
2013-08-27 13:00:00,71.6,64.4,29.90,WSW,248,1.0,10.0,78,0.00,,,0.00,VWS V14.01,2013-08-27 17:00:00,
2013-08-27 13:15:00,72.3,64.3,29.90,SW,225,1.0,13.0,76,0.00,,,0.00,VWS V14.01,2013-08-27 17:15:00,
2013-08-27 13:30:00,72.1,64.1,29.89,SSW,202,2.0,14.0,76,0.00,,,0.00,VWS V14.01,2013-08-27 17:30:00,
2013-08-27 13:45:00,72.0,63.3,29.89,SSW,202,1.0,10.0,74,0.00,,,0.00,VWS V14.01,2013-08-27 17:45:00,
2013-08-27 14:00:00,73.2,64.0,29.89,NNE,22,1.0,10.0,73,0.00,,,0.00,VWS V14.01,2013-08-27 18:00:00,
2013-08-27 14:15:00,74.0,63.6,29.88,NE,45,0.0,4.0,70,0.00,,,0.00,VWS V14.01,2013-08-27 18:15:00,
2013-08-27 14:30:00,73.9,63.5,29.88,SW,225,2.0,14.0,70,0.00,,,0.00,VWS V14.01,2013-08-27 18:30:00,
2013-08-27 14:45:00,73.7,63.7,29.88,WSW,248,1.0,9.0,71,0.00,,,0.00,VWS V14.01,2013-08-27 18:45:00,
2013-08-27 15:00:00,73.2,64.0,29.88,WSW,248,2.0,16.0,73,0.00,,,0.00,VWS V14.01,2013-08-27 19:00:00,
2013-08-27 15:15:00,72.7,64.3,29.87,WSW,248,4.0,16.0,75,0.00,,,0.00,VWS V14.01,2013-08-27 19:15:00,
2013-08-27 15:30:00,72.8,65.2,29.86,WSW,248,2.0,11.0,77,0.00,,,0.00,VWS V14.01,2013-08-27 19:30:00,
2013-08-27 15:45:00,72.7,65.1,29.85,SW,225,1.0,11.0,77,0.00,,,0.00,VWS V14.01,2013-08-27 19:45:00,
2013-08-27 16:00:00,73.2,64.4,29.85,SW,225,1.0,10.0,74,0.00,,,0.00,VWS V14.01,2013-08-27 20:00:00,
2013-08-27 16:15:00,73.9,64.7,29.84,WSW,248,1.0,6.0,73,0.00,,,0.00,VWS V14.01,2013-08-27 20:15:00,
2013-08-27 16:30:00,75.1,66.2,29.85,WSW,248,0.0,5.0,74,0.00,,,0.00,VWS V14.01,2013-08-27 20:30:00,
2013-08-27 16:45:00,74.2,64.6,29.85,SW,225,1.0,12.0,72,0.00,,,0.00,VWS V14.01,2013-08-27 20:45:00,
2013-08-27 17:00:00,74.6,65.8,29.85,SW,225,0.0,8.0,74,0.00,,,0.00,VWS V14.01,2013-08-27 21:00:00,
2013-08-27 17:15:00,74.0,64.8,29.85,WSW,248,1.0,13.0,73,0.00,,,0.00,VWS V14.01,2013-08-27 21:15:00,
2013-08-27 17:30:00,73.2,65.9,29.85,SW,225,0.0,6.0,78,0.00,,,0.00,VWS V14.01,2013-08-27 21:30:00,
2013-08-27 17:45:00,72.3,64.7,29.85,SW,225,0.0,1.0,77,0.00,,,0.00,VWS V14.01,2013-08-27 21:45:00,
2013-08-27 18:00:00,72.3,65.1,29.84,SW,225,0.0,4.0,78,0.00,,,0.00,VWS V14.01,2013-08-27 22:00:00,
2013-08-27 18:15:00,72.1,64.1,29.83,SSW,202,0.0,8.0,76,0.00,,,0.00,VWS V14.01,2013-08-27 22:15:00,
2013-08-27 18:30:00,72.0,64.8,29.83,SW,225,0.0,6.0,78,0.00,,,0.00,VWS V14.01,2013-08-27 22:30:00,
2013-08-27 18:45:00,71.6,64.8,29.82,SW,225,3.0,15.0,79,0.00,,,0.00,VWS V14.01,2013-08-27 22:45:00,
2013-08-27 19:00:00,71.3,64.8,29.83,SW,225,6.0,17.0,80,0.00,,,0.00,VWS V14.01,2013-08-27 23:00:00,
2013-08-27 19:15:00,70.6,64.5,29.83,SW,225,7.0,18.0,81,0.00,,,0.00,VWS V14.01,2013-08-27 23:15:00,
2013-08-27 19:30:00,70.3,64.9,29.83,SW,225,7.0,18.0,83,0.00,,,0.00,VWS V14.01,2013-08-27 23:30:00,
2013-08-27 19:45:00,69.9,64.8,29.84,SW,225,6.0,19.0,84,0.00,,,0.00,VWS V14.01,2013-08-27 23:45:00,
2013-08-27 20:00:00,69.6,64.6,29.85,SW,225,6.0,18.0,84,0.00,,,0.00,VWS V14.01,2013-08-28 00:00:00,
2013-08-27 20:15:00,69.3,64.3,29.85,SW,225,6.0,24.0,84,0.00,,,0.00,VWS V14.01,2013-08-28 00:15:00,
2013-08-27 20:30:00,69.3,64.3,29.85,SW,225,6.0,21.0,84,0.00,,,0.00,VWS V14.01,2013-08-28 00:30:00,
2013-08-27 20:45:00,69.3,64.6,29.85,SW,225,7.0,19.0,85,0.00,,,0.00,VWS V14.01,2013-08-28 00:45:00,
2013-08-27 21:00:00,68.9,64.9,29.86,SW,225,6.0,16.0,87,0.00,,,0.00,VWS V14.01,2013-08-28 01:00:00,
2013-08-27 21:15:00,68.6,64.6,29.86,SSW,202,5.0,15.0,87,0.00,,,0.00,VWS V14.01,2013-08-28 01:15:00,
2013-08-27 21:30:00,68.3,64.0,29.87,SW,225,1.0,13.0,86,0.00,,,0.00,VWS V14.01,2013-08-28 01:30:00,
2013-08-27 21:45:00,68.3,64.0,29.87,SW,225,3.0,10.0,86,0.00,,,0.00,VWS V14.01,2013-08-28 01:45:00,
2013-08-27 22:00:00,67.9,63.9,29.87,SW,225,1.0,9.0,87,0.00,,,0.00,VWS V14.01,2013-08-28 02:00:00,
2013-08-27 22:15:00,67.8,63.8,29.88,SW,225,2.0,16.0,87,0.00,,,0.00,VWS V14.01,2013-08-28 02:15:00,
2013-08-27 22:30:00,67.6,63.6,29.88,SW,225,1.0,10.0,87,0.00,,,0.00,VWS V14.01,2013-08-28 02:30:00,
2013-08-27 22:45:00,67.8,63.8,29.88,SW,225,2.0,10.0,87,0.00,,,0.00,VWS V14.01,2013-08-28 02:45:00,
2013-08-27 23:00:00,68.1,63.8,29.88,WSW,248,1.0,16.0,86,0.00,,,0.00,VWS V14.01,2013-08-28 03:00:00,
2013-08-27 23:15:00,68.1,63.8,29.86,WSW,248,2.0,16.0,86,0.00,,,0.00,VWS V14.01,2013-08-28 03:15:00,
2013-08-27 23:30:00,67.8,64.1,29.85,SW,225,1.0,10.0,88,0.00,,,0.00,VWS V14.01,2013-08-28 03:30:00,
2013-08-27 23:45:00,67.4,64.4,29.84,SW,225,2.0,13.0,90,0.00,,,0.00,VWS V14.01,2013-08-28 03:45:00,